sensor_id;sensor_type;location;lat;lon;timestamp;P1;durP1;ratioP1;P2;durP2;ratioP2
15516;SDS011;7860;52.030;5.572;2023-04-03T00:03:19;5.47;;;2.59;;
15516;SDS011;7860;52.030;5.572;2023-04-03T00:03:19;5.58;;;2.63;;
15516;SDS011;7860;52.030;5.572;2023-04-03T00:03:19;7.01;;;2.77;;
15516;SDS011;7860;52.030;5.572;2023-04-03T00:03:28;7.28;;;2.41;;
15516;SDS011;7860;52.030;5.572;2023-04-03T00:04:28;6.51;;;2.62;;
15516;SDS011;7860;52.030;5.572;2023-04-03T00:05:29;6.99;;;2.63;;
15516;SDS011;7860;52.030;5.572;2023-04-03T00:06:30;6.07;;;2.58;;
15516;SDS011;7860;52.030;5.572;2023-04-03T00:07:30;5.62;;;2.32;;
15516;SDS011;7860;52.030;5.572;2023-04-03T00:08:31;6.22;;;2.62;;
15516;SDS011;7860;52.030;5.572;2023-04-03T00:09:32;6.50;;;2.51;;
15516;SDS011;7860;52.030;5.572;2023-04-03T00:10:32;6.48;;;2.63;;
15516;SDS011;7860;52.030;5.572;2023-04-03T00:11:32;7.15;;;2.80;;
15516;SDS011;7860;52.030;5.572;2023-04-03T00:12:33;8.05;;;2.81;;
15516;SDS011;7860;52.030;5.572;2023-04-03T00:13:35;7.30;;;2.74;;
15516;SDS011;7860;52.030;5.572;2023-04-03T00:14:35;7.27;;;2.61;;
15516;SDS011;7860;52.030;5.572;2023-04-03T00:15:36;6.31;;;2.75;;
15516;SDS011;7860;52.030;5.572;2023-04-03T00:16:36;6.74;;;2.73;;
15516;SDS011;7860;52.030;5.572;2023-04-03T00:17:37;6.39;;;2.66;;
15516;SDS011;7860;52.030;5.572;2023-04-03T00:18:37;5.64;;;2.59;;
15516;SDS011;7860;52.030;5.572;2023-04-03T00:19:38;6.58;;;2.56;;
15516;SDS011;7860;52.030;5.572;2023-04-03T00:20:39;5.60;;;2.40;;
15516;SDS011;7860;52.030;5.572;2023-04-03T00:21:40;5.85;;;2.63;;
15516;SDS011;7860;52.030;5.572;2023-04-03T00:22:41;6.35;;;2.59;;
15516;SDS011;7860;52.030;5.572;2023-04-03T00:23:42;6.67;;;2.57;;
15516;SDS011;7860;52.030;5.572;2023-04-03T00:24:42;6.66;;;2.48;;
15516;SDS011;7860;52.030;5.572;2023-04-03T00:25:43;6.48;;;2.67;;
15516;SDS011;7860;52.030;5.572;2023-04-03T00:26:43;6.29;;;2.66;;
15516;SDS011;7860;52.030;5.572;2023-04-03T00:27:43;6.44;;;2.46;;
15516;SDS011;7860;52.030;5.572;2023-04-03T00:28:44;6.91;;;2.67;;
15516;SDS011;7860;52.030;5.572;2023-04-03T00:29:45;6.53;;;2.65;;
15516;SDS011;7860;52.030;5.572;2023-04-03T00:30:48;7.17;;;2.37;;
15516;SDS011;7860;52.030;5.572;2023-04-03T00:31:46;5.28;;;2.45;;
15516;SDS011;7860;52.030;5.572;2023-04-03T00:32:47;7.00;;;2.73;;
15516;SDS011;7860;52.030;5.572;2023-04-03T00:33:48;7.32;;;2.76;;
15516;SDS011;7860;52.030;5.572;2023-04-03T00:34:48;6.68;;;2.65;;
15516;SDS011;7860;52.030;5.572;2023-04-03T00:35:49;6.19;;;2.59;;
15516;SDS011;7860;52.030;5.572;2023-04-03T00:36:49;5.59;;;2.46;;
15516;SDS011;7860;52.030;5.572;2023-04-03T00:37:50;6.39;;;2.62;;
15516;SDS011;7860;52.030;5.572;2023-04-03T00:38:51;6.70;;;2.62;;
15516;SDS011;7860;52.030;5.572;2023-04-03T00:39:52;6.10;;;2.62;;
15516;SDS011;7860;52.030;5.572;2023-04-03T00:40:53;5.63;;;2.41;;
15516;SDS011;7860;52.030;5.572;2023-04-03T00:41:53;4.99;;;2.30;;
15516;SDS011;7860;52.030;5.572;2023-04-03T00:42:55;6.31;;;2.43;;
15516;SDS011;7860;52.030;5.572;2023-04-03T00:43:54;6.12;;;2.38;;
15516;SDS011;7860;52.030;5.572;2023-04-03T00:45:56;6.58;;;2.61;;
15516;SDS011;7860;52.030;5.572;2023-04-03T00:46:55;5.92;;;2.56;;
15516;SDS011;7860;52.030;5.572;2023-04-03T00:47:56;6.50;;;2.58;;
15516;SDS011;7860;52.030;5.572;2023-04-03T00:48:57;6.35;;;2.53;;
15516;SDS011;7860;52.030;5.572;2023-04-03T00:49:58;6.14;;;2.59;;
15516;SDS011;7860;52.030;5.572;2023-04-03T00:50:59;6.13;;;2.60;;
15516;SDS011;7860;52.030;5.572;2023-04-03T00:51:59;6.16;;;2.47;;
15516;SDS011;7860;52.030;5.572;2023-04-03T00:53:00;7.55;;;2.77;;
15516;SDS011;7860;52.030;5.572;2023-04-03T00:54:02;7.06;;;2.45;;
15516;SDS011;7860;52.030;5.572;2023-04-03T00:55:02;7.09;;;2.46;;
15516;SDS011;7860;52.030;5.572;2023-04-03T00:56:02;5.97;;;2.43;;
15516;SDS011;7860;52.030;5.572;2023-04-03T00:57:02;8.36;;;2.58;;
15516;SDS011;7860;52.030;5.572;2023-04-03T00:58:03;6.40;;;2.46;;
15516;SDS011;7860;52.030;5.572;2023-04-03T00:59:04;6.60;;;2.48;;
15516;SDS011;7860;52.030;5.572;2023-04-03T01:00:06;6.62;;;2.65;;
15516;SDS011;7860;52.030;5.572;2023-04-03T01:01:05;5.57;;;2.41;;
15516;SDS011;7860;52.030;5.572;2023-04-03T01:02:06;5.58;;;2.37;;
15516;SDS011;7860;52.030;5.572;2023-04-03T01:03:05;6.08;;;2.44;;
15516;SDS011;7860;52.030;5.572;2023-04-03T01:04:24;5.75;;;2.48;;
15516;SDS011;7860;52.030;5.572;2023-04-03T01:05:07;7.37;;;2.52;;
15516;SDS011;7860;52.030;5.572;2023-04-03T01:06:08;6.43;;;2.53;;
15516;SDS011;7860;52.030;5.572;2023-04-03T01:07:10;5.62;;;2.45;;
15516;SDS011;7860;52.030;5.572;2023-04-03T01:08:09;6.06;;;2.59;;
15516;SDS011;7860;52.030;5.572;2023-04-03T01:09:10;6.43;;;2.59;;
15516;SDS011;7860;52.030;5.572;2023-04-03T01:10:12;5.99;;;2.50;;
15516;SDS011;7860;52.030;5.572;2023-04-03T01:11:11;6.05;;;2.43;;
15516;SDS011;7860;52.030;5.572;2023-04-03T01:12:12;7.19;;;2.51;;
15516;SDS011;7860;52.030;5.572;2023-04-03T01:13:22;5.76;;;2.51;;
15516;SDS011;7860;52.030;5.572;2023-04-03T01:14:14;5.95;;;2.51;;
15516;SDS011;7860;52.030;5.572;2023-04-03T01:15:15;6.72;;;2.55;;
15516;SDS011;7860;52.030;5.572;2023-04-03T01:16:15;6.72;;;2.63;;
15516;SDS011;7860;52.030;5.572;2023-04-03T01:17:25;6.98;;;2.67;;
15516;SDS011;7860;52.030;5.572;2023-04-03T01:18:16;5.14;;;2.35;;
15516;SDS011;7860;52.030;5.572;2023-04-03T01:19:17;6.33;;;2.57;;
15516;SDS011;7860;52.030;5.572;2023-04-03T01:20:33;6.23;;;2.54;;
15516;SDS011;7860;52.030;5.572;2023-04-03T01:22:19;5.63;;;2.51;;
15516;SDS011;7860;52.030;5.572;2023-04-03T01:23:23;7.61;;;2.50;;
15516;SDS011;7860;52.030;5.572;2023-04-03T01:24:23;6.38;;;2.55;;
15516;SDS011;7860;52.030;5.572;2023-04-03T01:25:21;6.67;;;2.76;;
15516;SDS011;7860;52.030;5.572;2023-04-03T01:26:22;6.90;;;2.54;;
15516;SDS011;7860;52.030;5.572;2023-04-03T01:27:23;6.60;;;2.53;;
15516;SDS011;7860;52.030;5.572;2023-04-03T01:28:24;6.61;;;2.75;;
15516;SDS011;7860;52.030;5.572;2023-04-03T01:29:24;5.74;;;2.50;;
15516;SDS011;7860;52.030;5.572;2023-04-03T01:30:25;6.93;;;2.68;;
15516;SDS011;7860;52.030;5.572;2023-04-03T01:31:27;6.60;;;2.46;;
15516;SDS011;7860;52.030;5.572;2023-04-03T01:32:26;6.21;;;2.44;;
15516;SDS011;7860;52.030;5.572;2023-04-03T01:33:26;6.31;;;2.69;;
15516;SDS011;7860;52.030;5.572;2023-04-03T01:34:28;7.31;;;2.52;;
15516;SDS011;7860;52.030;5.572;2023-04-03T01:35:27;8.14;;;2.60;;
15516;SDS011;7860;52.030;5.572;2023-04-03T01:36:30;7.45;;;2.40;;
15516;SDS011;7860;52.030;5.572;2023-04-03T01:37:29;6.01;;;2.63;;
15516;SDS011;7860;52.030;5.572;2023-04-03T01:38:29;6.81;;;2.67;;
15516;SDS011;7860;52.030;5.572;2023-04-03T01:39:30;7.25;;;2.64;;
15516;SDS011;7860;52.030;5.572;2023-04-03T01:40:31;5.97;;;2.35;;
15516;SDS011;7860;52.030;5.572;2023-04-03T01:41:32;7.83;;;2.54;;
15516;SDS011;7860;52.030;5.572;2023-04-03T01:42:32;6.21;;;2.60;;
15516;SDS011;7860;52.030;5.572;2023-04-03T01:43:33;6.66;;;2.49;;
15516;SDS011;7860;52.030;5.572;2023-04-03T01:44:34;7.13;;;2.54;;
15516;SDS011;7860;52.030;5.572;2023-04-03T01:45:35;7.49;;;2.74;;
15516;SDS011;7860;52.030;5.572;2023-04-03T01:46:35;6.05;;;2.54;;
15516;SDS011;7860;52.030;5.572;2023-04-03T01:47:36;7.69;;;2.49;;
15516;SDS011;7860;52.030;5.572;2023-04-03T01:48:37;6.22;;;2.38;;
15516;SDS011;7860;52.030;5.572;2023-04-03T01:49:37;6.14;;;2.53;;
15516;SDS011;7860;52.030;5.572;2023-04-03T01:50:37;7.28;;;2.80;;
15516;SDS011;7860;52.030;5.572;2023-04-03T01:51:38;8.30;;;2.66;;
15516;SDS011;7860;52.030;5.572;2023-04-03T01:52:38;5.91;;;2.47;;
15516;SDS011;7860;52.030;5.572;2023-04-03T01:53:39;6.28;;;2.48;;
15516;SDS011;7860;52.030;5.572;2023-04-03T01:54:39;7.33;;;2.90;;
15516;SDS011;7860;52.030;5.572;2023-04-03T01:55:40;5.26;;;2.28;;
15516;SDS011;7860;52.030;5.572;2023-04-03T01:56:41;6.22;;;2.62;;
15516;SDS011;7860;52.030;5.572;2023-04-03T01:57:42;6.02;;;2.45;;
15516;SDS011;7860;52.030;5.572;2023-04-03T01:58:42;8.25;;;2.71;;
15516;SDS011;7860;52.030;5.572;2023-04-03T01:59:43;6.84;;;2.68;;
15516;SDS011;7860;52.030;5.572;2023-04-03T02:00:44;5.52;;;2.77;;
15516;SDS011;7860;52.030;5.572;2023-04-03T02:01:45;6.66;;;2.51;;
15516;SDS011;7860;52.030;5.572;2023-04-03T02:02:46;6.31;;;2.66;;
15516;SDS011;7860;52.030;5.572;2023-04-03T02:03:47;8.54;;;2.51;;
15516;SDS011;7860;52.030;5.572;2023-04-03T02:04:48;7.21;;;2.55;;
15516;SDS011;7860;52.030;5.572;2023-04-03T02:05:48;6.81;;;2.70;;
15516;SDS011;7860;52.030;5.572;2023-04-03T02:06:48;7.89;;;2.70;;
15516;SDS011;7860;52.030;5.572;2023-04-03T02:07:49;7.08;;;2.76;;
15516;SDS011;7860;52.030;5.572;2023-04-03T02:08:49;8.64;;;2.49;;
15516;SDS011;7860;52.030;5.572;2023-04-03T02:09:50;7.46;;;2.70;;
15516;SDS011;7860;52.030;5.572;2023-04-03T02:10:51;6.32;;;2.65;;
15516;SDS011;7860;52.030;5.572;2023-04-03T02:11:51;6.69;;;2.56;;
15516;SDS011;7860;52.030;5.572;2023-04-03T02:12:52;6.35;;;2.64;;
15516;SDS011;7860;52.030;5.572;2023-04-03T02:13:53;6.24;;;2.55;;
15516;SDS011;7860;52.030;5.572;2023-04-03T02:14:54;6.76;;;2.59;;
15516;SDS011;7860;52.030;5.572;2023-04-03T02:15:55;7.38;;;2.53;;
15516;SDS011;7860;52.030;5.572;2023-04-03T02:16:55;8.93;;;2.39;;
15516;SDS011;7860;52.030;5.572;2023-04-03T02:17:56;7.54;;;2.57;;
15516;SDS011;7860;52.030;5.572;2023-04-03T02:18:57;7.04;;;2.54;;
15516;SDS011;7860;52.030;5.572;2023-04-03T02:19:58;9.31;;;2.67;;
15516;SDS011;7860;52.030;5.572;2023-04-03T02:20:58;8.89;;;2.75;;
15516;SDS011;7860;52.030;5.572;2023-04-03T02:21:59;8.01;;;2.68;;
15516;SDS011;7860;52.030;5.572;2023-04-03T02:23:00;8.33;;;2.77;;
15516;SDS011;7860;52.030;5.572;2023-04-03T02:24:01;9.49;;;2.92;;
15516;SDS011;7860;52.030;5.572;2023-04-03T02:25:03;7.77;;;2.55;;
15516;SDS011;7860;52.030;5.572;2023-04-03T02:26:04;7.69;;;2.52;;
15516;SDS011;7860;52.030;5.572;2023-04-03T02:27:03;7.82;;;2.43;;
15516;SDS011;7860;52.030;5.572;2023-04-03T02:28:04;6.26;;;2.68;;
15516;SDS011;7860;52.030;5.572;2023-04-03T02:29:05;7.63;;;2.69;;
15516;SDS011;7860;52.030;5.572;2023-04-03T02:30:06;6.56;;;2.58;;
15516;SDS011;7860;52.030;5.572;2023-04-03T02:31:06;7.76;;;2.97;;
15516;SDS011;7860;52.030;5.572;2023-04-03T02:32:07;7.99;;;2.80;;
15516;SDS011;7860;52.030;5.572;2023-04-03T02:33:08;8.02;;;2.95;;
15516;SDS011;7860;52.030;5.572;2023-04-03T02:34:08;7.53;;;2.70;;
15516;SDS011;7860;52.030;5.572;2023-04-03T02:35:09;8.06;;;2.81;;
15516;SDS011;7860;52.030;5.572;2023-04-03T02:36:09;8.39;;;2.74;;
15516;SDS011;7860;52.030;5.572;2023-04-03T02:37:09;7.70;;;2.75;;
15516;SDS011;7860;52.030;5.572;2023-04-03T02:38:10;8.56;;;2.85;;
15516;SDS011;7860;52.030;5.572;2023-04-03T02:39:11;6.86;;;2.82;;
15516;SDS011;7860;52.030;5.572;2023-04-03T02:40:11;7.22;;;2.79;;
15516;SDS011;7860;52.030;5.572;2023-04-03T02:41:12;8.09;;;3.00;;
15516;SDS011;7860;52.030;5.572;2023-04-03T02:42:12;8.26;;;2.79;;
15516;SDS011;7860;52.030;5.572;2023-04-03T02:43:13;8.41;;;2.85;;
15516;SDS011;7860;52.030;5.572;2023-04-03T02:44:14;8.23;;;2.81;;
15516;SDS011;7860;52.030;5.572;2023-04-03T02:45:15;8.61;;;3.00;;
15516;SDS011;7860;52.030;5.572;2023-04-03T02:46:16;7.47;;;2.93;;
15516;SDS011;7860;52.030;5.572;2023-04-03T02:47:17;8.15;;;3.00;;
15516;SDS011;7860;52.030;5.572;2023-04-03T02:48:18;6.64;;;2.60;;
15516;SDS011;7860;52.030;5.572;2023-04-03T02:49:19;6.46;;;2.64;;
15516;SDS011;7860;52.030;5.572;2023-04-03T02:50:19;7.38;;;2.69;;
15516;SDS011;7860;52.030;5.572;2023-04-03T02:51:20;7.69;;;2.93;;
15516;SDS011;7860;52.030;5.572;2023-04-03T02:52:20;6.46;;;2.73;;
15516;SDS011;7860;52.030;5.572;2023-04-03T02:53:21;8.34;;;3.27;;
15516;SDS011;7860;52.030;5.572;2023-04-03T02:54:21;7.63;;;2.70;;
15516;SDS011;7860;52.030;5.572;2023-04-03T02:55:21;7.90;;;2.97;;
15516;SDS011;7860;52.030;5.572;2023-04-03T02:56:21;8.25;;;2.81;;
15516;SDS011;7860;52.030;5.572;2023-04-03T02:57:22;7.91;;;2.69;;
15516;SDS011;7860;52.030;5.572;2023-04-03T02:58:23;8.73;;;2.64;;
15516;SDS011;7860;52.030;5.572;2023-04-03T02:59:24;6.56;;;2.69;;
15516;SDS011;7860;52.030;5.572;2023-04-03T03:00:24;6.52;;;2.68;;
15516;SDS011;7860;52.030;5.572;2023-04-03T03:01:25;8.05;;;2.66;;
15516;SDS011;7860;52.030;5.572;2023-04-03T03:02:26;7.46;;;2.49;;
15516;SDS011;7860;52.030;5.572;2023-04-03T03:03:27;9.96;;;3.05;;
15516;SDS011;7860;52.030;5.572;2023-04-03T03:04:27;8.64;;;2.75;;
15516;SDS011;7860;52.030;5.572;2023-04-03T03:05:28;7.19;;;2.96;;
15516;SDS011;7860;52.030;5.572;2023-04-03T03:06:29;7.45;;;2.71;;
15516;SDS011;7860;52.030;5.572;2023-04-03T03:07:29;7.92;;;2.69;;
15516;SDS011;7860;52.030;5.572;2023-04-03T03:08:30;7.73;;;2.80;;
15516;SDS011;7860;52.030;5.572;2023-04-03T03:09:30;8.15;;;2.80;;
15516;SDS011;7860;52.030;5.572;2023-04-03T03:10:31;7.12;;;2.79;;
15516;SDS011;7860;52.030;5.572;2023-04-03T03:11:32;8.66;;;3.02;;
15516;SDS011;7860;52.030;5.572;2023-04-03T03:12:32;8.52;;;2.84;;
15516;SDS011;7860;52.030;5.572;2023-04-03T03:13:33;7.93;;;2.77;;
15516;SDS011;7860;52.030;5.572;2023-04-03T03:14:34;7.45;;;2.85;;
15516;SDS011;7860;52.030;5.572;2023-04-03T03:15:35;10.27;;;3.24;;
15516;SDS011;7860;52.030;5.572;2023-04-03T03:16:36;9.57;;;2.98;;
15516;SDS011;7860;52.030;5.572;2023-04-03T03:17:36;6.81;;;2.66;;
15516;SDS011;7860;52.030;5.572;2023-04-03T03:18:37;9.31;;;2.94;;
15516;SDS011;7860;52.030;5.572;2023-04-03T03:19:37;9.71;;;3.18;;
15516;SDS011;7860;52.030;5.572;2023-04-03T03:20:38;8.26;;;2.86;;
15516;SDS011;7860;52.030;5.572;2023-04-03T03:21:39;7.96;;;3.04;;
15516;SDS011;7860;52.030;5.572;2023-04-03T03:22:40;7.75;;;2.85;;
15516;SDS011;7860;52.030;5.572;2023-04-03T03:23:41;8.06;;;2.61;;
15516;SDS011;7860;52.030;5.572;2023-04-03T03:24:41;10.12;;;2.77;;
15516;SDS011;7860;52.030;5.572;2023-04-03T03:25:41;7.30;;;2.87;;
15516;SDS011;7860;52.030;5.572;2023-04-03T03:26:42;8.77;;;3.28;;
15516;SDS011;7860;52.030;5.572;2023-04-03T03:27:42;9.20;;;2.82;;
15516;SDS011;7860;52.030;5.572;2023-04-03T03:28:43;8.62;;;2.97;;
15516;SDS011;7860;52.030;5.572;2023-04-03T03:29:43;9.78;;;3.28;;
15516;SDS011;7860;52.030;5.572;2023-04-03T03:30:44;7.35;;;2.86;;
15516;SDS011;7860;52.030;5.572;2023-04-03T03:31:45;7.31;;;2.68;;
15516;SDS011;7860;52.030;5.572;2023-04-03T03:32:46;8.39;;;3.02;;
15516;SDS011;7860;52.030;5.572;2023-04-03T03:33:47;8.74;;;3.09;;
15516;SDS011;7860;52.030;5.572;2023-04-03T03:34:48;7.48;;;2.88;;
15516;SDS011;7860;52.030;5.572;2023-04-03T03:35:49;8.19;;;2.71;;
15516;SDS011;7860;52.030;5.572;2023-04-03T03:36:50;9.11;;;2.88;;
15516;SDS011;7860;52.030;5.572;2023-04-03T03:37:51;7.51;;;3.14;;
15516;SDS011;7860;52.030;5.572;2023-04-03T03:38:52;9.75;;;2.97;;
15516;SDS011;7860;52.030;5.572;2023-04-03T03:39:53;8.45;;;3.06;;
15516;SDS011;7860;52.030;5.572;2023-04-03T03:40:54;7.70;;;2.80;;
15516;SDS011;7860;52.030;5.572;2023-04-03T03:41:54;7.84;;;3.09;;
15516;SDS011;7860;52.030;5.572;2023-04-03T03:42:55;9.00;;;3.23;;
15516;SDS011;7860;52.030;5.572;2023-04-03T03:43:56;8.98;;;2.87;;
15516;SDS011;7860;52.030;5.572;2023-04-03T03:44:57;8.18;;;3.06;;
15516;SDS011;7860;52.030;5.572;2023-04-03T03:45:57;8.02;;;2.84;;
15516;SDS011;7860;52.030;5.572;2023-04-03T03:46:58;7.70;;;3.16;;
15516;SDS011;7860;52.030;5.572;2023-04-03T03:47:58;8.03;;;2.87;;
15516;SDS011;7860;52.030;5.572;2023-04-03T03:48:59;8.70;;;3.43;;
15516;SDS011;7860;52.030;5.572;2023-04-03T03:50:00;8.72;;;2.98;;
15516;SDS011;7860;52.030;5.572;2023-04-03T03:51:01;7.64;;;2.99;;
15516;SDS011;7860;52.030;5.572;2023-04-03T03:52:01;7.55;;;3.04;;
15516;SDS011;7860;52.030;5.572;2023-04-03T03:53:02;9.81;;;3.28;;
15516;SDS011;7860;52.030;5.572;2023-04-03T03:54:02;9.52;;;3.14;;
15516;SDS011;7860;52.030;5.572;2023-04-03T03:55:03;8.48;;;3.06;;
15516;SDS011;7860;52.030;5.572;2023-04-03T03:56:03;8.46;;;3.31;;
15516;SDS011;7860;52.030;5.572;2023-04-03T03:57:04;7.87;;;3.27;;
15516;SDS011;7860;52.030;5.572;2023-04-03T03:58:04;8.65;;;2.87;;
15516;SDS011;7860;52.030;5.572;2023-04-03T03:59:05;7.12;;;2.86;;
15516;SDS011;7860;52.030;5.572;2023-04-03T04:00:06;8.86;;;3.02;;
15516;SDS011;7860;52.030;5.572;2023-04-03T04:01:06;7.86;;;2.92;;
15516;SDS011;7860;52.030;5.572;2023-04-03T04:02:07;8.97;;;3.27;;
15516;SDS011;7860;52.030;5.572;2023-04-03T04:03:08;7.58;;;2.99;;
15516;SDS011;7860;52.030;5.572;2023-04-03T04:04:09;7.54;;;2.93;;
15516;SDS011;7860;52.030;5.572;2023-04-03T04:05:10;9.38;;;3.48;;
15516;SDS011;7860;52.030;5.572;2023-04-03T04:06:11;7.80;;;3.02;;
15516;SDS011;7860;52.030;5.572;2023-04-03T04:07:12;7.38;;;2.79;;
15516;SDS011;7860;52.030;5.572;2023-04-03T04:08:12;9.05;;;2.95;;
15516;SDS011;7860;52.030;5.572;2023-04-03T04:09:13;6.35;;;3.02;;
15516;SDS011;7860;52.030;5.572;2023-04-03T04:10:14;8.14;;;2.91;;
15516;SDS011;7860;52.030;5.572;2023-04-03T04:11:14;9.75;;;3.42;;
15516;SDS011;7860;52.030;5.572;2023-04-03T04:12:14;8.42;;;3.28;;
15516;SDS011;7860;52.030;5.572;2023-04-03T04:13:15;8.46;;;2.92;;
15516;SDS011;7860;52.030;5.572;2023-04-03T04:14:15;8.25;;;3.01;;
15516;SDS011;7860;52.030;5.572;2023-04-03T04:15:16;8.76;;;3.14;;
15516;SDS011;7860;52.030;5.572;2023-04-03T04:16:16;10.19;;;2.96;;
15516;SDS011;7860;52.030;5.572;2023-04-03T04:17:17;8.71;;;3.02;;
15516;SDS011;7860;52.030;5.572;2023-04-03T04:18:17;9.15;;;3.40;;
15516;SDS011;7860;52.030;5.572;2023-04-03T04:19:18;9.74;;;3.21;;
15516;SDS011;7860;52.030;5.572;2023-04-03T04:20:18;9.83;;;3.20;;
15516;SDS011;7860;52.030;5.572;2023-04-03T04:21:19;8.70;;;3.31;;
15516;SDS011;7860;52.030;5.572;2023-04-03T04:22:20;8.27;;;3.22;;
15516;SDS011;7860;52.030;5.572;2023-04-03T04:23:21;9.40;;;3.24;;
15516;SDS011;7860;52.030;5.572;2023-04-03T04:24:21;9.27;;;3.38;;
15516;SDS011;7860;52.030;5.572;2023-04-03T04:25:22;9.23;;;3.02;;
15516;SDS011;7860;52.030;5.572;2023-04-03T04:26:23;8.20;;;3.17;;
15516;SDS011;7860;52.030;5.572;2023-04-03T04:27:23;8.19;;;3.07;;
15516;SDS011;7860;52.030;5.572;2023-04-03T04:28:24;8.78;;;3.28;;
15516;SDS011;7860;52.030;5.572;2023-04-03T04:29:25;7.63;;;2.97;;
15516;SDS011;7860;52.030;5.572;2023-04-03T04:30:26;8.91;;;3.09;;
15516;SDS011;7860;52.030;5.572;2023-04-03T04:31:27;9.10;;;3.17;;
15516;SDS011;7860;52.030;5.572;2023-04-03T04:32:27;8.85;;;3.42;;
15516;SDS011;7860;52.030;5.572;2023-04-03T04:33:28;11.33;;;3.50;;
15516;SDS011;7860;52.030;5.572;2023-04-03T04:34:29;7.45;;;3.08;;
15516;SDS011;7860;52.030;5.572;2023-04-03T04:35:30;8.82;;;3.05;;
15516;SDS011;7860;52.030;5.572;2023-04-03T04:36:30;8.92;;;3.12;;
15516;SDS011;7860;52.030;5.572;2023-04-03T04:37:31;8.37;;;3.30;;
15516;SDS011;7860;52.030;5.572;2023-04-03T04:38:31;9.63;;;3.49;;
15516;SDS011;7860;52.030;5.572;2023-04-03T04:39:32;9.65;;;3.16;;
15516;SDS011;7860;52.030;5.572;2023-04-03T04:40:32;8.19;;;3.20;;
15516;SDS011;7860;52.030;5.572;2023-04-03T04:41:33;9.31;;;3.40;;
15516;SDS011;7860;52.030;5.572;2023-04-03T04:42:33;8.50;;;3.34;;
15516;SDS011;7860;52.030;5.572;2023-04-03T04:43:34;7.93;;;3.15;;
15516;SDS011;7860;52.030;5.572;2023-04-03T04:44:35;8.91;;;3.07;;
15516;SDS011;7860;52.030;5.572;2023-04-03T04:45:35;8.42;;;3.25;;
15516;SDS011;7860;52.030;5.572;2023-04-03T04:46:36;11.23;;;3.44;;
15516;SDS011;7860;52.030;5.572;2023-04-03T04:47:37;8.66;;;3.53;;
15516;SDS011;7860;52.030;5.572;2023-04-03T04:48:38;10.31;;;3.67;;
15516;SDS011;7860;52.030;5.572;2023-04-03T04:49:39;9.53;;;3.48;;
15516;SDS011;7860;52.030;5.572;2023-04-03T04:50:39;9.30;;;3.49;;
15516;SDS011;7860;52.030;5.572;2023-04-03T04:51:40;9.82;;;3.58;;
15516;SDS011;7860;52.030;5.572;2023-04-03T04:52:41;10.82;;;3.60;;
15516;SDS011;7860;52.030;5.572;2023-04-03T04:53:41;10.54;;;3.57;;
15516;SDS011;7860;52.030;5.572;2023-04-03T04:54:41;9.30;;;3.80;;
15516;SDS011;7860;52.030;5.572;2023-04-03T04:55:41;10.16;;;3.40;;
15516;SDS011;7860;52.030;5.572;2023-04-03T04:56:42;9.11;;;3.65;;
15516;SDS011;7860;52.030;5.572;2023-04-03T04:57:43;11.49;;;3.61;;
15516;SDS011;7860;52.030;5.572;2023-04-03T04:58:44;9.47;;;3.71;;
15516;SDS011;7860;52.030;5.572;2023-04-03T04:59:44;8.40;;;3.68;;
15516;SDS011;7860;52.030;5.572;2023-04-03T05:00:45;9.58;;;3.42;;
15516;SDS011;7860;52.030;5.572;2023-04-03T05:01:46;9.59;;;3.65;;
15516;SDS011;7860;52.030;5.572;2023-04-03T05:02:46;9.48;;;3.19;;
15516;SDS011;7860;52.030;5.572;2023-04-03T05:03:47;10.13;;;3.46;;
15516;SDS011;7860;52.030;5.572;2023-04-03T05:04:47;10.94;;;3.85;;
15516;SDS011;7860;52.030;5.572;2023-04-03T05:05:48;11.18;;;4.13;;
15516;SDS011;7860;52.030;5.572;2023-04-03T05:06:48;10.10;;;3.82;;
15516;SDS011;7860;52.030;5.572;2023-04-03T05:07:49;11.91;;;3.84;;
15516;SDS011;7860;52.030;5.572;2023-04-03T05:08:49;11.85;;;3.75;;
15516;SDS011;7860;52.030;5.572;2023-04-03T05:09:49;9.28;;;3.86;;
15516;SDS011;7860;52.030;5.572;2023-04-03T05:10:49;9.17;;;3.47;;
15516;SDS011;7860;52.030;5.572;2023-04-03T05:11:50;9.19;;;3.65;;
15516;SDS011;7860;52.030;5.572;2023-04-03T05:12:50;10.58;;;3.78;;
15516;SDS011;7860;52.030;5.572;2023-04-03T05:13:51;11.25;;;3.87;;
15516;SDS011;7860;52.030;5.572;2023-04-03T05:14:52;9.59;;;3.44;;
15516;SDS011;7860;52.030;5.572;2023-04-03T05:15:52;8.81;;;3.58;;
15516;SDS011;7860;52.030;5.572;2023-04-03T05:16:53;8.95;;;3.48;;
15516;SDS011;7860;52.030;5.572;2023-04-03T05:17:54;10.46;;;3.68;;
15516;SDS011;7860;52.030;5.572;2023-04-03T05:18:54;8.33;;;3.17;;
15516;SDS011;7860;52.030;5.572;2023-04-03T05:19:55;12.89;;;3.49;;
15516;SDS011;7860;52.030;5.572;2023-04-03T05:20:56;10.38;;;3.55;;
15516;SDS011;7860;52.030;5.572;2023-04-03T05:21:57;9.82;;;3.21;;
15516;SDS011;7860;52.030;5.572;2023-04-03T05:22:57;8.89;;;3.33;;
15516;SDS011;7860;52.030;5.572;2023-04-03T05:23:58;9.62;;;3.20;;
15516;SDS011;7860;52.030;5.572;2023-04-03T05:24:59;9.86;;;3.67;;
15516;SDS011;7860;52.030;5.572;2023-04-03T05:26:00;9.06;;;3.34;;
15516;SDS011;7860;52.030;5.572;2023-04-03T05:27:01;9.50;;;3.22;;
15516;SDS011;7860;52.030;5.572;2023-04-03T05:28:01;10.34;;;3.27;;
15516;SDS011;7860;52.030;5.572;2023-04-03T05:29:02;11.39;;;3.46;;
15516;SDS011;7860;52.030;5.572;2023-04-03T05:30:04;9.60;;;3.31;;
15516;SDS011;7860;52.030;5.572;2023-04-03T05:31:04;9.64;;;3.10;;
15516;SDS011;7860;52.030;5.572;2023-04-03T05:32:04;11.15;;;2.95;;
15516;SDS011;7860;52.030;5.572;2023-04-03T05:33:05;9.29;;;3.17;;
15516;SDS011;7860;52.030;5.572;2023-04-03T05:34:05;10.03;;;3.27;;
15516;SDS011;7860;52.030;5.572;2023-04-03T05:35:06;9.28;;;3.30;;
15516;SDS011;7860;52.030;5.572;2023-04-03T05:36:07;9.64;;;3.41;;
15516;SDS011;7860;52.030;5.572;2023-04-03T05:37:07;11.26;;;3.44;;
15516;SDS011;7860;52.030;5.572;2023-04-03T05:38:08;9.43;;;3.06;;
15516;SDS011;7860;52.030;5.572;2023-04-03T05:39:09;10.88;;;3.06;;
15516;SDS011;7860;52.030;5.572;2023-04-03T05:40:09;8.30;;;3.38;;
15516;SDS011;7860;52.030;5.572;2023-04-03T05:41:09;9.53;;;3.16;;
15516;SDS011;7860;52.030;5.572;2023-04-03T05:42:10;8.79;;;2.94;;
15516;SDS011;7860;52.030;5.572;2023-04-03T05:43:11;9.23;;;3.12;;
15516;SDS011;7860;52.030;5.572;2023-04-03T05:44:12;11.17;;;3.47;;
15516;SDS011;7860;52.030;5.572;2023-04-03T05:45:13;9.50;;;3.05;;
15516;SDS011;7860;52.030;5.572;2023-04-03T05:46:14;10.59;;;3.54;;
15516;SDS011;7860;52.030;5.572;2023-04-03T05:47:14;8.94;;;3.20;;
15516;SDS011;7860;52.030;5.572;2023-04-03T05:48:15;9.53;;;3.25;;
15516;SDS011;7860;52.030;5.572;2023-04-03T05:49:15;9.98;;;3.28;;
15516;SDS011;7860;52.030;5.572;2023-04-03T05:50:15;8.38;;;3.08;;
15516;SDS011;7860;52.030;5.572;2023-04-03T05:51:16;8.28;;;2.97;;
15516;SDS011;7860;52.030;5.572;2023-04-03T05:52:17;10.17;;;3.28;;
15516;SDS011;7860;52.030;5.572;2023-04-03T05:53:17;10.25;;;3.18;;
15516;SDS011;7860;52.030;5.572;2023-04-03T05:54:19;9.25;;;3.05;;
15516;SDS011;7860;52.030;5.572;2023-04-03T05:55:18;8.66;;;3.11;;
15516;SDS011;7860;52.030;5.572;2023-04-03T05:56:19;8.45;;;3.04;;
15516;SDS011;7860;52.030;5.572;2023-04-03T05:57:20;8.48;;;3.07;;
15516;SDS011;7860;52.030;5.572;2023-04-03T05:58:21;9.65;;;2.98;;
15516;SDS011;7860;52.030;5.572;2023-04-03T05:59:22;9.33;;;3.32;;
15516;SDS011;7860;52.030;5.572;2023-04-03T06:00:23;10.53;;;3.13;;
15516;SDS011;7860;52.030;5.572;2023-04-03T06:01:23;10.33;;;2.84;;
15516;SDS011;7860;52.030;5.572;2023-04-03T06:02:24;10.05;;;2.89;;
15516;SDS011;7860;52.030;5.572;2023-04-03T06:03:24;9.15;;;2.75;;
15516;SDS011;7860;52.030;5.572;2023-04-03T06:04:24;8.47;;;2.87;;
15516;SDS011;7860;52.030;5.572;2023-04-03T06:05:25;9.17;;;3.01;;
15516;SDS011;7860;52.030;5.572;2023-04-03T06:06:25;11.20;;;3.38;;
15516;SDS011;7860;52.030;5.572;2023-04-03T06:07:27;9.06;;;3.04;;
15516;SDS011;7860;52.030;5.572;2023-04-03T06:08:27;9.80;;;2.95;;
15516;SDS011;7860;52.030;5.572;2023-04-03T06:09:28;9.49;;;3.35;;
15516;SDS011;7860;52.030;5.572;2023-04-03T06:10:28;9.55;;;3.09;;
15516;SDS011;7860;52.030;5.572;2023-04-03T06:11:28;10.50;;;3.12;;
15516;SDS011;7860;52.030;5.572;2023-04-03T06:12:29;9.31;;;2.96;;